Time;durP1;ratioP1;P1;durP2;ratioP2;P2;SDS_P1;SDS_P2;PMS_P1;PMS_P2;Temp;Humidity;BMP_temperature;BMP_pressure;BME280_temperature;BME280_humidity;BME280_pressure;Samples;Min_cycle;Max_cycle;Signal;HPM_P1;HPM_P2
2021/09/11 00:00:55;;;;;;;48.40;28.73;;;;;;;;;;5060611;28;20025;-76
2021/09/11 00:03:20;;;;;;;52.08;28.80;;;;;;;;;;5074585;28;20146;-76
2021/09/11 00:05:47;;;;;;;50.20;29.13;;;;;;;;;;5051956;28;20028;-75
2021/09/11 00:08:12;;;;;;;48.63;28.30;;;;;;;;;;5063974;28;20376;-75
2021/09/11 00:10:38;;;;;;;46.08;27.80;;;;;;;;;;5077658;28;20020;-76
2021/09/11 00:13:04;;;;;;;101.95;31.63;;;;;;;;;;5063709;28;20024;-75
2021/09/11 00:15:32;;;;;;;63.80;31.70;;;;;;;;;;5075245;28;20408;-75
2021/09/11 00:18:02;;;;;;;81.88;33.80;;;;;;;;;;5062432;28;20111;-75
2021/09/11 00:20:29;;;;;;;62.72;32.13;;;;;;;;;;5071815;28;20016;-75
2021/09/11 00:22:55;;;;;;;56.70;30.63;;;;;;;;;;5067568;28;20025;-75
2021/09/11 00:25:21;;;;;;;53.58;30.55;;;;;;;;;;5081863;28;20020;-75
2021/09/11 00:27:47;;;;;;;59.08;31.25;;;;;;;;;;5058449;28;20079;-75
2021/09/11 00:30:12;;;;;;;54.08;30.77;;;;;;;;;;5075841;28;20021;-76
2021/09/11 00:32:42;;;;;;;52.58;30.70;;;;;;;;;;5080045;28;20028;-75
2021/09/11 00:35:10;;;;;;;51.45;31.00;;;;;;;;;;5076227;28;20032;-75
2021/09/11 00:37:35;;;;;;;58.25;32.58;;;;;;;;;;5078906;28;20257;-76
2021/09/11 00:40:01;;;;;;;53.60;32.55;;;;;;;;;;5069081;28;20504;-75
2021/09/11 00:42:26;;;;;;;52.80;31.08;;;;;;;;;;5063981;28;20031;-76
2021/09/11 00:44:52;;;;;;;53.53;31.45;;;;;;;;;;5060036;28;20115;-76
2021/09/11 00:47:17;;;;;;;52.40;29.90;;;;;;;;;;5069636;28;20059;-76
2021/09/11 00:49:43;;;;;;;53.42;29.77;;;;;;;;;;5083486;28;20023;-75
2021/09/11 00:52:08;;;;;;;50.45;29.77;;;;;;;;;;5079429;28;20035;-75
2021/09/11 00:54:34;;;;;;;50.25;29.25;;;;;;;;;;5064715;28;20031;-75
2021/09/11 00:57:00;;;;;;;49.20;29.17;;;;;;;;;;5066947;28;20112;-75
2021/09/11 00:59:26;;;;;;;45.60;26.90;;;;;;;;;;5072589;28;20189;-75
2021/09/11 01:01:51;;;;;;;43.92;27.58;;;;;;;;;;5065879;28;20032;-75
2021/09/11 01:04:17;;;;;;;48.92;29.55;;;;;;;;;;5073980;28;20078;-76
2021/09/11 01:06:43;;;;;;;45.88;28.77;;;;;;;;;;5066963;28;20047;-76
2021/09/11 01:09:09;;;;;;;48.35;28.77;;;;;;;;;;5055280;28;20056;-76
2021/09/11 01:11:35;;;;;;;45.92;28.73;;;;;;;;;;5062081;28;20056;-75
2021/09/11 01:14:00;;;;;;;48.88;29.02;;;;;;;;;;5054294;28;20520;-76
2021/09/11 01:16:26;;;;;;;43.15;27.30;;;;;;;;;;5068472;28;20021;-75
2021/09/11 01:18:51;;;;;;;42.45;26.88;;;;;;;;;;5069568;28;20032;-75
2021/09/11 01:21:17;;;;;;;37.50;25.02;;;;;;;;;;5086169;28;20032;-75
2021/09/11 01:23:42;;;;;;;37.38;24.73;;;;;;;;;;5062234;28;20027;-75
2021/09/11 01:26:12;;;;;;;40.00;25.08;;;;;;;;;;5070347;28;20074;-75
2021/09/11 01:28:38;;;;;;;42.45;26.25;;;;;;;;;;5068627;28;20145;-75
2021/09/11 01:31:04;;;;;;;44.40;27.80;;;;;;;;;;5069311;28;20046;-75
2021/09/11 01:33:30;;;;;;;45.17;28.02;;;;;;;;;;5056623;28;20032;-75
2021/09/11 01:35:55;;;;;;;47.00;28.17;;;;;;;;;;5068249;28;20104;-75
2021/09/11 01:38:21;;;;;;;43.38;27.80;;;;;;;;;;5058445;28;20491;-75
2021/09/11 01:40:47;;;;;;;41.92;27.67;;;;;;;;;;5067166;28;20433;-75
2021/09/11 01:43:12;;;;;;;42.38;26.85;;;;;;;;;;5067572;28;20025;-75
2021/09/11 01:45:37;;;;;;;40.08;27.92;;;;;;;;;;5076089;28;20035;-75
2021/09/11 01:48:03;;;;;;;37.20;25.27;;;;;;;;;;5056895;28;20480;-75
2021/09/11 01:50:29;;;;;;;35.75;24.05;;;;;;;;;;5066008;28;20051;-75
2021/09/11 01:52:54;;;;;;;36.13;23.95;;;;;;;;;;5075492;28;20518;-75
2021/09/11 01:55:21;;;;;;;40.95;24.27;;;;;;;;;;5082047;28;20028;-75
2021/09/11 01:57:47;;;;;;;35.50;23.67;;;;;;;;;;5065901;28;20032;-75
2021/09/11 02:00:18;;;;;;;36.40;24.30;;;;;;;;;;5069107;28;20040;-75
2021/09/11 02:02:44;;;;;;;38.75;25.02;;;;;;;;;;5059060;28;20111;-75
2021/09/11 02:05:11;;;;;;;38.53;24.80;;;;;;;;;;5060120;28;20127;-75
2021/09/11 02:07:38;;;;;;;37.38;24.73;;;;;;;;;;5048928;28;20059;-75
2021/09/11 02:10:05;;;;;;;37.22;25.38;;;;;;;;;;5040274;28;20491;-75
2021/09/11 02:12:30;;;;;;;38.28;24.88;;;;;;;;;;5068844;28;20055;-75
2021/09/11 02:14:55;;;;;;;34.53;23.27;;;;;;;;;;5055269;28;20064;-75
2021/09/11 02:17:21;;;;;;;32.67;23.60;;;;;;;;;;5056407;28;20040;-75
2021/09/11 02:19:47;;;;;;;33.55;23.60;;;;;;;;;;5060778;28;20036;-75
2021/09/11 02:22:13;;;;;;;34.97;24.73;;;;;;;;;;5071654;28;20090;-75
2021/09/11 02:24:39;;;;;;;35.00;24.33;;;;;;;;;;5062662;28;20033;-74
2021/09/11 02:27:05;;;;;;;35.13;25.60;;;;;;;;;;5064062;28;20040;-75
2021/09/11 02:29:31;;;;;;;35.67;24.63;;;;;;;;;;5051575;28;20072;-75
2021/09/11 02:31:57;;;;;;;34.58;24.48;;;;;;;;;;5064547;28;20051;-75
2021/09/11 02:34:22;;;;;;;39.15;25.90;;;;;;;;;;5071500;28;20028;-75
2021/09/11 02:36:48;;;;;;;36.05;25.98;;;;;;;;;;5067856;28;20013;-75
2021/09/11 02:39:13;;;;;;;38.05;24.10;;;;;;;;;;5059753;28;20029;-75
2021/09/11 02:41:39;;;;;;;34.17;23.48;;;;;;;;;;5063787;28;20017;-75
2021/09/11 02:44:05;;;;;;;34.67;24.60;;;;;;;;;;5071857;28;20028;-75
2021/09/11 02:46:31;;;;;;;37.38;23.92;;;;;;;;;;5080682;28;20032;-75
2021/09/11 02:48:58;;;;;;;39.30;24.65;;;;;;;;;;5062275;28;20504;-75
2021/09/11 02:51:25;;;;;;;35.05;25.40;;;;;;;;;;5062898;28;20028;-75
2021/09/11 02:53:50;;;;;;;34.92;24.52;;;;;;;;;;5075307;28;20091;-75
2021/09/11 02:56:16;;;;;;;32.83;24.10;;;;;;;;;;5073460;28;20032;-75
2021/09/11 02:58:41;;;;;;;30.73;21.70;;;;;;;;;;5059671;28;20051;-75
2021/09/11 03:01:07;;;;;;;33.97;23.45;;;;;;;;;;5057384;28;20377;-75
2021/09/11 03:03:32;;;;;;;30.20;22.98;;;;;;;;;;5067823;28;20021;-75
2021/09/11 03:05:59;;;;;;;30.08;22.80;;;;;;;;;;5070709;28;20382;-75
2021/09/11 03:08:24;;;;;;;30.25;22.90;;;;;;;;;;5054547;28;20078;-75
2021/09/11 03:10:50;;;;;;;29.77;22.25;;;;;;;;;;5062834;28;20037;-75
2021/09/11 03:13:16;;;;;;;31.17;21.90;;;;;;;;;;5061836;28;20089;-75
2021/09/11 03:15:41;;;;;;;29.17;22.10;;;;;;;;;;5068410;28;20511;-74
2021/09/11 03:18:07;;;;;;;27.40;21.40;;;;;;;;;;5060744;28;20431;-75
2021/09/11 03:20:34;;;;;;;35.35;23.92;;;;;;;;;;5074640;28;20035;-75
2021/09/11 03:22:59;;;;;;;32.67;22.67;;;;;;;;;;5069524;28;20082;-74
2021/09/11 03:25:24;;;;;;;33.70;24.00;;;;;;;;;;5052745;28;20060;-74
2021/09/11 03:27:50;;;;;;;34.03;24.33;;;;;;;;;;5062202;28;20024;-75
2021/09/11 03:30:15;;;;;;;37.88;24.75;;;;;;;;;;5065050;28;20431;-75
2021/09/11 03:32:41;;;;;;;34.97;25.33;;;;;;;;;;5074564;28;20040;-75
2021/09/11 03:35:07;;;;;;;34.78;24.48;;;;;;;;;;5072946;28;20051;-75
2021/09/11 03:37:33;;;;;;;33.70;25.05;;;;;;;;;;5067724;28;20033;-75
2021/09/11 03:39:59;;;;;;;31.13;22.42;;;;;;;;;;5071083;28;20443;-75
2021/09/11 03:42:24;;;;;;;30.75;22.40;;;;;;;;;;5073050;28;20054;-75
2021/09/11 03:44:50;;;;;;;35.00;23.45;;;;;;;;;;5075570;28;20463;-75
2021/09/11 03:47:15;;;;;;;34.83;23.40;;;;;;;;;;5054538;28;20029;-75
2021/09/11 03:49:41;;;;;;;33.97;23.65;;;;;;;;;;5065749;28;20031;-75
2021/09/11 03:52:06;;;;;;;30.00;21.98;;;;;;;;;;5056880;28;20028;-75
2021/09/11 03:54:32;;;;;;;31.63;23.05;;;;;;;;;;5074136;28;20104;-75
2021/09/11 03:56:57;;;;;;;33.47;23.70;;;;;;;;;;5064542;28;20104;-74
2021/09/11 03:59:23;;;;;;;33.15;24.23;;;;;;;;;;5050035;28;20083;-75
2021/09/11 04:01:48;;;;;;;31.45;23.25;;;;;;;;;;5065954;28;20029;-75
2021/09/11 04:04:14;;;;;;;31.48;23.98;;;;;;;;;;5075521;28;20438;-75
2021/09/11 04:06:40;;;;;;;28.95;22.98;;;;;;;;;;5070331;28;20024;-75
2021/09/11 04:09:06;;;;;;;29.13;21.80;;;;;;;;;;5067344;28;20024;-75
2021/09/11 04:11:31;;;;;;;26.60;20.35;;;;;;;;;;5084807;28;20030;-75
2021/09/11 04:13:57;;;;;;;28.00;20.20;;;;;;;;;;5062433;28;20027;-75
2021/09/11 04:16:22;;;;;;;27.80;20.25;;;;;;;;;;5073932;28;20032;-75
2021/09/11 04:18:48;;;;;;;25.90;20.50;;;;;;;;;;5077718;28;20024;-75
2021/09/11 04:21:13;;;;;;;27.30;20.10;;;;;;;;;;5059141;28;20119;-75
2021/09/11 04:23:38;;;;;;;30.25;20.48;;;;;;;;;;5067646;28;20055;-75
2021/09/11 04:26:05;;;;;;;28.65;19.92;;;;;;;;;;5077591;28;20125;-75
2021/09/11 04:28:30;;;;;;;25.58;19.35;;;;;;;;;;5071517;28;20495;-75
2021/09/11 04:30:56;;;;;;;24.73;18.75;;;;;;;;;;5043295;28;20127;-73
2021/09/11 04:33:21;;;;;;;26.02;19.83;;;;;;;;;;5066765;28;20028;-74
2021/09/11 04:35:47;;;;;;;26.67;20.02;;;;;;;;;;5055757;28;20021;-74
2021/09/11 04:38:12;;;;;;;24.27;18.77;;;;;;;;;;5060201;28;20025;-74
2021/09/11 04:40:38;;;;;;;24.17;17.95;;;;;;;;;;5071634;28;20027;-75
2021/09/11 04:43:07;;;;;;;24.35;18.45;;;;;;;;;;5079637;28;20028;-73
2021/09/11 04:45:33;;;;;;;26.45;20.23;;;;;;;;;;5055797;28;20052;-75
2021/09/11 04:47:58;;;;;;;26.77;20.70;;;;;;;;;;5072399;28;20029;-74
2021/09/11 04:50:24;;;;;;;26.33;20.52;;;;;;;;;;5074005;28;20024;-74
2021/09/11 04:52:49;;;;;;;28.38;21.73;;;;;;;;;;5080781;28;20009;-74
2021/09/11 04:55:16;;;;;;;28.48;22.48;;;;;;;;;;5071497;28;20038;-74
2021/09/11 04:57:42;;;;;;;27.92;22.15;;;;;;;;;;5082384;28;20077;-73
2021/09/11 05:00:08;;;;;;;26.23;19.55;;;;;;;;;;5067704;28;20516;-73
2021/09/11 05:02:34;;;;;;;25.65;19.00;;;;;;;;;;5059953;28;20120;-73
2021/09/11 05:04:59;;;;;;;23.80;18.38;;;;;;;;;;5061922;28;20124;-73
2021/09/11 05:07:25;;;;;;;27.30;19.08;;;;;;;;;;5059001;28;20048;-74
2021/09/11 05:09:52;;;;;;;26.33;19.90;;;;;;;;;;5073923;28;20472;-74
2021/09/11 05:12:17;;;;;;;33.60;21.55;;;;;;;;;;5073195;28;20051;-74
2021/09/11 05:14:43;;;;;;;42.47;22.63;;;;;;;;;;5058931;28;20024;-75
2021/09/11 05:17:08;;;;;;;37.55;21.50;;;;;;;;;;5062472;28;20107;-74
2021/09/11 05:19:34;;;;;;;35.03;20.35;;;;;;;;;;5058006;28;20064;-74
2021/09/11 05:21:59;;;;;;;54.45;21.30;;;;;;;;;;5068403;28;20179;-74
2021/09/11 05:24:25;;;;;;;49.45;21.17;;;;;;;;;;5063599;28;20475;-75
2021/09/11 05:26:50;;;;;;;55.00;22.08;;;;;;;;;;5072811;28;20385;-74
2021/09/11 05:29:16;;;;;;;55.08;20.30;;;;;;;;;;5073628;28;20361;-75
2021/09/11 05:31:41;;;;;;;76.63;21.70;;;;;;;;;;5069485;28;20032;-74
2021/09/11 05:34:07;;;;;;;58.05;21.50;;;;;;;;;;5066849;28;20030;-74
2021/09/11 05:36:33;;;;;;;55.83;21.00;;;;;;;;;;5060471;28;20039;-74
2021/09/11 05:38:59;;;;;;;43.28;19.63;;;;;;;;;;5052699;28;20028;-74
2021/09/11 05:41:24;;;;;;;42.35;18.95;;;;;;;;;;5064957;28;20488;-74
2021/09/11 05:43:50;;;;;;;32.17;18.10;;;;;;;;;;5066599;28;20034;-74
2021/09/11 05:46:16;;;;;;;36.63;19.52;;;;;;;;;;5052366;28;20040;-74
2021/09/11 05:48:41;;;;;;;39.35;17.58;;;;;;;;;;5067050;28;20074;-74
2021/09/11 05:51:07;;;;;;;36.30;17.73;;;;;;;;;;5078366;28;20111;-74
2021/09/11 05:53:33;;;;;;;37.63;16.63;;;;;;;;;;5073851;28;20487;-74
2021/09/11 05:55:58;;;;;;;35.53;17.17;;;;;;;;;;5069599;28;20100;-75
2021/09/11 05:58:24;;;;;;;34.03;18.00;;;;;;;;;;5086913;28;20491;-74
2021/09/11 06:00:50;;;;;;;38.90;19.98;;;;;;;;;;5084076;28;20236;-74
2021/09/11 06:03:15;;;;;;;50.97;20.52;;;;;;;;;;5052452;28;20096;-75
2021/09/11 06:05:41;;;;;;;48.33;20.90;;;;;;;;;;5056579;28;20163;-75
2021/09/11 06:08:06;;;;;;;44.28;19.63;;;;;;;;;;5077970;28;20028;-75
2021/09/11 06:10:32;;;;;;;35.92;19.83;;;;;;;;;;5072032;28;20047;-75
2021/09/11 06:12:59;;;;;;;30.63;18.83;;;;;;;;;;5053911;28;20016;-75
2021/09/11 06:15:25;;;;;;;31.67;18.20;;;;;;;;;;5077713;28;20510;-75
2021/09/11 06:17:53;;;;;;;28.58;17.48;;;;;;;;;;5083901;28;20028;-75
2021/09/11 06:20:18;;;;;;;27.65;17.45;;;;;;;;;;5083589;28;20032;-75
2021/09/11 06:22:44;;;;;;;28.33;16.85;;;;;;;;;;5061909;28;20043;-75
2021/09/11 06:25:10;;;;;;;23.63;15.93;;;;;;;;;;5067807;28;20287;-76
2021/09/11 06:27:35;;;;;;;25.38;15.77;;;;;;;;;;5051850;28;20033;-75
2021/09/11 06:30:01;;;;;;;23.52;15.48;;;;;;;;;;5060100;28;20036;-75
2021/09/11 06:32:27;;;;;;;22.35;14.98;;;;;;;;;;5076300;28;20531;-75
2021/09/11 06:34:53;;;;;;;22.05;15.55;;;;;;;;;;5059012;28;20108;-76
2021/09/11 06:37:18;;;;;;;25.50;15.73;;;;;;;;;;5065304;28;20537;-75
2021/09/11 06:39:44;;;;;;;22.83;16.77;;;;;;;;;;5057328;28;20028;-75
2021/09/11 06:42:12;;;;;;;20.65;16.02;;;;;;;;;;5069947;28;20024;-75
2021/09/11 06:44:38;;;;;;;19.38;15.32;;;;;;;;;;5052254;28;20100;-75
2021/09/11 06:47:03;;;;;;;19.38;15.75;;;;;;;;;;5066306;28;20107;-75
2021/09/11 06:49:29;;;;;;;20.52;16.27;;;;;;;;;;5076424;28;20024;-75
2021/09/11 06:51:54;;;;;;;20.75;16.83;;;;;;;;;;5084718;28;20020;-75
2021/09/11 06:54:20;;;;;;;18.85;16.38;;;;;;;;;;5071078;28;20024;-76
2021/09/11 06:56:45;;;;;;;19.77;16.48;;;;;;;;;;5060386;28;20095;-76
2021/09/11 06:59:12;;;;;;;21.20;17.42;;;;;;;;;;5070693;28;20047;-75
2021/09/11 07:01:38;;;;;;;20.70;17.88;;;;;;;;;;5072746;28;20028;-75
2021/09/11 07:04:04;;;;;;;25.33;19.90;;;;;;;;;;5062332;28;20044;-75
2021/09/11 07:06:31;;;;;;;23.08;18.88;;;;;;;;;;5082634;28;20502;-76
2021/09/11 07:08:56;;;;;;;24.45;20.40;;;;;;;;;;5078730;28;20067;-76
2021/09/11 07:11:22;;;;;;;22.70;19.65;;;;;;;;;;5056565;28;20032;-75
2021/09/11 07:13:48;;;;;;;24.02;20.27;;;;;;;;;;5083608;28;20058;-75
2021/09/11 07:16:13;;;;;;;23.75;20.45;;;;;;;;;;5068829;28;20492;-76
2021/09/11 07:18:39;;;;;;;23.75;19.48;;;;;;;;;;5055206;28;20025;-76
2021/09/11 07:21:04;;;;;;;23.30;20.50;;;;;;;;;;5060004;28;20019;-76
2021/09/11 07:23:30;;;;;;;24.23;19.48;;;;;;;;;;5078133;28;20037;-75
2021/09/11 07:25:55;;;;;;;19.75;17.65;;;;;;;;;;5059583;28;20028;-75
2021/09/11 07:28:21;;;;;;;21.25;18.80;;;;;;;;;;5055542;28;20111;-75
2021/09/11 07:30:46;;;;;;;21.73;17.88;;;;;;;;;;5064353;28;20093;-76
2021/09/11 07:33:12;;;;;;;18.65;16.75;;;;;;;;;;5068372;28;20028;-76
2021/09/11 07:35:37;;;;;;;18.40;14.70;;;;;;;;;;5072468;28;20413;-76
2021/09/11 07:38:03;;;;;;;16.02;14.32;;;;;;;;;;5062597;28;20032;-75
2021/09/11 07:40:29;;;;;;;16.67;14.48;;;;;;;;;;5064451;28;20043;-76
2021/09/11 07:42:54;;;;;;;13.60;12.05;;;;;;;;;;5050577;28;20461;-76
2021/09/11 07:45:20;;;;;;;13.10;11.70;;;;;;;;;;5064776;28;20116;-76
2021/09/11 07:47:45;;;;;;;18.65;11.93;;;;;;;;;;5059439;28;20032;-76
2021/09/11 07:50:11;;;;;;;13.77;11.68;;;;;;;;;;5080638;28;20408;-76
2021/09/11 07:52:37;;;;;;;13.88;12.20;;;;;;;;;;5065716;28;20032;-76
2021/09/11 07:55:04;;;;;;;12.93;10.52;;;;;;;;;;5078564;28;20029;-76
2021/09/11 07:57:29;;;;;;;11.38;10.18;;;;;;;;;;5054617;28;20028;-76
2021/09/11 07:59:55;;;;;;;11.55;9.55;;;;;;;;;;5058832;28;20116;-76
2021/09/11 08:02:21;;;;;;;12.10;9.55;;;;;;;;;;5078587;28;20557;-77
2021/09/11 08:04:47;;;;;;;11.18;9.10;;;;;;;;;;5061326;28;20101;-77
2021/09/11 08:07:12;;;;;;;13.70;8.45;;;;;;;;;;5070792;28;20460;-76
2021/09/11 08:09:38;;;;;;;11.38;8.32;;;;;;;;;;5071577;28;20083;-76
2021/09/11 08:12:03;;;;;;;11.73;8.43;;;;;;;;;;5073296;28;20523;-76
2021/09/11 08:14:29;;;;;;;9.25;8.25;;;;;;;;;;5056723;28;20029;-76
2021/09/11 08:16:54;;;;;;;10.88;9.00;;;;;;;;;;5046115;28;20056;-76
2021/09/11 08:19:20;;;;;;;13.23;9.02;;;;;;;;;;5057139;28;20037;-77
2021/09/11 08:21:45;;;;;;;12.55;8.85;;;;;;;;;;5062235;28;20083;-77
2021/09/11 08:24:11;;;;;;;12.48;8.40;;;;;;;;;;5066307;28;20025;-77
2021/09/11 08:26:36;;;;;;;11.27;8.50;;;;;;;;;;5050445;28;20032;-77
2021/09/11 08:29:02;;;;;;;9.82;8.60;;;;;;;;;;5067213;28;20039;-76
2021/09/11 08:31:28;;;;;;;11.75;7.95;;;;;;;;;;5066005;28;20051;-76
2021/09/11 08:33:53;;;;;;;10.23;7.55;;;;;;;;;;5080810;28;20024;-77
2021/09/11 08:36:19;;;;;;;12.88;8.15;;;;;;;;;;5081522;28;20397;-77
2021/09/11 08:38:44;;;;;;;8.32;7.43;;;;;;;;;;5079601;28;20115;-77
2021/09/11 08:41:11;;;;;;;11.98;8.02;;;;;;;;;;5072407;28;20028;-76
2021/09/11 08:43:36;;;;;;;8.57;7.68;;;;;;;;;;5077567;28;20070;-75
2021/09/11 08:46:03;;;;;;;11.15;8.52;;;;;;;;;;5070802;28;20403;-76
2021/09/11 08:48:30;;;;;;;8.70;7.80;;;;;;;;;;5051066;28;20432;-75
2021/09/11 08:50:56;;;;;;;8.23;7.38;;;;;;;;;;5073096;28;20021;-75
2021/09/11 08:53:21;;;;;;;12.65;7.22;;;;;;;;;;5076000;28;20120;-75
2021/09/11 08:55:47;;;;;;;8.73;7.25;;;;;;;;;;5075480;28;20032;-75
2021/09/11 08:58:13;;;;;;;9.93;7.00;;;;;;;;;;5079540;28;20039;-76
2021/09/11 09:00:50;;;;;;;8.68;6.97;;;;;;;;;;5065211;28;20055;-75
2021/09/11 09:03:35;;;;;;;7.60;6.80;;;;;;;;;;5073735;28;20146;-76
2021/09/11 09:06:25;;;;;;;8.43;7.40;;;;;;;;;;5072249;28;20115;-76
2021/09/11 09:08:53;;;;;;;9.68;7.70;;;;;;;;;;5074006;28;20471;-76
2021/09/11 09:11:27;;;;;;;9.02;7.57;;;;;;;;;;5076953;28;20068;-76
2021/09/11 09:14:06;;;;;;;9.63;7.38;;;;;;;;;;5065754;28;20079;-75
2021/09/11 09:16:37;;;;;;;8.20;7.13;;;;;;;;;;5082733;28;20406;-76
2021/09/11 09:19:25;;;;;;;9.10;6.90;;;;;;;;;;5078866;28;20058;-76
2021/09/11 09:21:53;;;;;;;7.88;6.75;;;;;;;;;;5062976;28;20041;-76
2021/09/11 09:24:38;;;;;;;7.70;6.70;;;;;;;;;;5069925;28;20067;-76
2021/09/11 09:27:07;;;;;;;7.82;6.70;;;;;;;;;;5070918;28;20456;-79
2021/09/11 09:29:37;;;;;;;9.25;7.03;;;;;;;;;;5071237;28;20345;-78
2021/09/11 09:32:03;;;;;;;8.32;7.10;;;;;;;;;;5070512;28;20028;-77
2021/09/11 09:34:32;;;;;;;10.25;7.20;;;;;;;;;;5071350;28;20016;-77
2021/09/11 09:36:59;;;;;;;9.95;7.10;;;;;;;;;;5066172;28;20020;-78
2021/09/11 09:39:25;;;;;;;9.55;7.60;;;;;;;;;;5079350;28;20028;-78
2021/09/11 09:41:53;;;;;;;8.07;7.13;;;;;;;;;;5073272;28;20108;-78
2021/09/11 09:44:21;;;;;;;11.60;6.28;;;;;;;;;;5072287;28;20086;-78
2021/09/11 09:46:49;;;;;;;10.95;5.43;;;;;;;;;;5082773;28;20056;-78
2021/09/11 09:49:19;;;;;;;7.57;5.53;;;;;;;;;;5076468;28;20059;-79
2021/09/11 09:51:47;;;;;;;7.93;5.65;;;;;;;;;;5079058;28;20032;-78
2021/09/11 09:54:15;;;;;;;6.43;5.30;;;;;;;;;;5077580;28;20090;-77
2021/09/11 09:56:41;;;;;;;8.82;5.30;;;;;;;;;;5073369;28;20067;-79
2021/09/11 09:59:07;;;;;;;11.13;5.55;;;;;;;;;;5072905;28;20041;-77
2021/09/11 10:01:33;;;;;;;6.90;5.63;;;;;;;;;;5067883;28;20437;-76
2021/09/11 10:04:12;;;;;;;7.90;6.07;;;;;;;;;;5071394;28;20058;-76
2021/09/11 10:06:40;;;;;;;8.10;5.50;;;;;;;;;;5059058;28;20401;-77
2021/09/11 10:09:07;;;;;;;6.90;5.07;;;;;;;;;;5071140;28;20028;-76
2021/09/11 10:11:38;;;;;;;7.07;5.43;;;;;;;;;;5072380;28;20024;-73
2021/09/11 10:14:14;;;;;;;8.70;5.20;;;;;;;;;;5088100;28;20500;-76
2021/09/11 10:16:45;;;;;;;7.45;5.35;;;;;;;;;;5071141;28;20111;-77
2021/09/11 10:19:23;;;;;;;9.20;5.40;;;;;;;;;;5054233;28;20034;-76
2021/09/11 10:21:50;;;;;;;8.57;5.53;;;;;;;;;;5072249;28;20032;-77
2021/09/11 10:24:22;;;;;;;9.60;5.35;;;;;;;;;;5072041;28;20032;-78
2021/09/11 10:26:53;;;;;;;9.85;5.90;;;;;;;;;;5073781;28;20022;-76
2021/09/11 10:29:44;;;;;;;10.85;5.55;;;;;;;;;;5073287;28;20036;-75
2021/09/11 10:32:16;;;;;;;8.40;5.57;;;;;;;;;;5075110;28;20028;-75
2021/09/11 10:34:51;;;;;;;12.68;6.38;;;;;;;;;;5086357;28;20032;-77
2021/09/11 10:37:26;;;;;;;13.40;5.90;;;;;;;;;;5086833;28;20490;-77
2021/09/11 10:40:22;;;;;;;7.75;5.78;;;;;;;;;;5077247;28;20028;-77
2021/09/11 10:43:06;;;;;;;10.55;6.30;;;;;;;;;;5069414;28;20522;-76
2021/09/11 10:45:38;;;;;;;;;;;;;;;;;;5077491;28;20070;-77
2021/09/11 10:48:06;;;;;;;9.45;6.60;;;;;;;;;;5074114;28;20020;-77
2021/09/11 10:50:39;;;;;;;13.65;7.38;;;;;;;;;;5090379;28;20024;-77
2021/09/11 10:53:23;;;;;;;10.52;6.93;;;;;;;;;;5088623;28;20484;-76
2021/09/11 10:55:49;;;;;;;9.55;6.97;;;;;;;;;;5071307;28;20024;-77
2021/09/11 10:58:25;;;;;;;10.27;7.28;;;;;;;;;;5071629;28;20060;-76
2021/09/11 11:01:01;;;;;;;9.20;6.55;;;;;;;;;;5051646;28;20028;-77
2021/09/11 11:03:27;;;;;;;10.13;7.32;;;;;;;;;;5070916;28;20468;-77
2021/09/11 11:06:04;;;;;;;9.63;6.75;;;;;;;;;;5071303;28;20111;-77
2021/09/11 11:08:30;;;;;;;10.20;6.72;;;;;;;;;;5076166;28;20020;-76
2021/09/11 11:10:57;;;;;;;10.93;6.80;;;;;;;;;;5091594;28;20016;-75
2021/09/11 11:13:23;;;;;;;10.52;7.57;;;;;;;;;;5091604;28;20020;-77
2021/09/11 11:15:55;;;;;;;12.43;6.57;;;;;;;;;;5087910;28;20119;-77
2021/09/11 11:18:21;;;;;;;8.35;6.90;;;;;;;;;;5091430;28;20088;-77
2021/09/11 11:20:47;;;;;;;9.60;6.85;;;;;;;;;;5091314;28;20047;-77
2021/09/11 11:23:12;;;;;;;10.18;7.47;;;;;;;;;;5083836;28;20032;-77
2021/09/11 11:25:39;;;;;;;7.65;6.13;;;;;;;;;;5064675;28;20035;-78
2021/09/11 11:28:11;;;;;;;7.35;5.32;;;;;;;;;;5073507;28;20162;-77
2021/09/11 11:30:38;;;;;;;8.85;6.20;;;;;;;;;;5076302;28;20088;-76
2021/09/11 11:33:05;;;;;;;7.68;5.40;;;;;;;;;;5070924;28;20460;-77
2021/09/11 11:35:30;;;;;;;8.57;7.07;;;;;;;;;;5070799;28;20024;-76
2021/09/11 11:37:57;;;;;;;8.35;7.45;;;;;;;;;;5071020;28;20518;-76
2021/09/11 11:40:23;;;;;;;8.82;7.18;;;;;;;;;;5070847;28;20481;-77
2021/09/11 11:42:49;;;;;;;9.07;7.05;;;;;;;;;;5078298;28;20104;-77
2021/09/11 11:45:16;;;;;;;8.48;7.18;;;;;;;;;;5091242;28;20051;-76
2021/09/11 11:48:02;;;;;;;7.28;6.20;;;;;;;;;;5090719;28;20032;-76
2021/09/11 11:50:31;;;;;;;8.63;6.30;;;;;;;;;;5075126;28;20044;-77
2021/09/11 11:53:00;;;;;;;7.05;5.97;;;;;;;;;;5071630;28;20031;-77
2021/09/11 11:55:27;;;;;;;6.75;4.50;;;;;;;;;;5084882;28;20357;-77
2021/09/11 11:58:09;;;;;;;6.53;5.32;;;;;;;;;;5072680;28;20025;-78
2021/09/11 12:00:42;;;;;;;7.55;5.22;;;;;;;;;;5075647;28;20033;-77
2021/09/11 12:03:44;;;;;;;8.73;5.13;;;;;;;;;;5074603;28;20024;-77
2021/09/11 12:06:27;;;;;;;7.60;5.97;;;;;;;;;;5074532;28;20029;-76
2021/09/11 12:08:54;;;;;;;7.47;4.68;;;;;;;;;;5074410;28;20400;-77
2021/09/11 12:11:24;;;;;;;7.05;4.97;;;;;;;;;;5074301;28;20545;-77
2021/09/11 12:13:54;;;;;;;7.60;5.82;;;;;;;;;;5074267;28;20421;-76
2021/09/11 12:16:21;;;;;;;12.00;9.90;;;;;;;;;;5074609;28;20376;-77
2021/09/11 12:18:47;;;;;;;10.93;9.32;;;;;;;;;;5074143;28;20069;-76
2021/09/11 12:21:16;;;;;;;14.43;11.32;;;;;;;;;;5088029;28;20028;-77
2021/09/11 12:23:48;;;;;;;13.68;11.27;;;;;;;;;;5078759;28;20111;-77
2021/09/11 12:26:15;;;;;;;11.45;9.57;;;;;;;;;;5074209;28;20031;-77
2021/09/11 12:28:45;;;;;;;12.35;9.32;;;;;;;;;;5073600;28;20028;-77
2021/09/11 12:31:10;;;;;;;11.80;9.50;;;;;;;;;;5074039;28;20396;-76
2021/09/11 12:33:59;;;;;;;15.60;9.13;;;;;;;;;;5073818;28;20028;-76
2021/09/11 12:36:41;;;;;;;14.15;10.00;;;;;;;;;;5065997;28;20064;-76
2021/09/11 12:39:15;;;;;;;13.35;10.82;;;;;;;;;;5073971;28;20016;-77
2021/09/11 12:41:42;;;;;;;13.48;10.77;;;;;;;;;;5073522;28;20115;-75
2021/09/11 12:44:08;;;;;;;14.07;11.02;;;;;;;;;;5083383;28;20031;-75
2021/09/11 12:46:47;;;;;;;14.57;12.55;;;;;;;;;;5084715;28;20396;-77
2021/09/11 12:49:12;;;;;;;14.60;13.05;;;;;;;;;;5062206;28;20047;-75
2021/09/11 12:51:40;;;;;;;17.70;14.60;;;;;;;;;;5073734;28;20017;-76
2021/09/11 12:54:05;;;;;;;15.50;12.45;;;;;;;;;;5075229;28;20078;-76
2021/09/11 12:56:32;;;;;;;16.38;12.10;;;;;;;;;;5074199;28;20056;-76
2021/09/11 12:58:58;;;;;;;14.60;12.15;;;;;;;;;;5074110;28;20045;-76
2021/09/11 13:01:26;;;;;;;17.00;12.98;;;;;;;;;;5073836;28;20044;-76
2021/09/11 13:03:52;;;;;;;39.60;35.33;;;;;;;;;;5058226;28;20557;-75
2021/09/11 13:06:17;;;;;;;21.25;19.25;;;;;;;;;;5062391;28;20031;-75
2021/09/11 13:08:43;;;;;;;67.75;53.08;;;;;;;;;;5054402;28;20469;-75
2021/09/11 13:11:12;;;;;;;34.50;30.83;;;;;;;;;;5055634;28;20086;-75
2021/09/11 13:13:38;;;;;;;21.48;19.13;;;;;;;;;;5054662;28;20021;-76
2021/09/11 13:16:05;;;;;;;15.15;12.20;;;;;;;;;;5057304;28;20067;-76
2021/09/11 13:18:30;;;;;;;25.55;21.00;;;;;;;;;;5093547;28;20028;-75
2021/09/11 13:20:58;;;;;;;22.13;18.17;;;;;;;;;;5074482;28;20029;-75
2021/09/11 13:23:25;;;;;;;18.70;15.25;;;;;;;;;;5075735;28;20021;-75
2021/09/11 13:25:51;;;;;;;18.23;16.08;;;;;;;;;;5072846;28;20016;-75
2021/09/11 13:28:17;;;;;;;20.30;16.20;;;;;;;;;;5072979;28;20032;-75
2021/09/11 13:30:42;;;;;;;17.98;14.93;;;;;;;;;;5072620;28;20032;-76
2021/09/11 13:33:08;;;;;;;13.32;10.65;;;;;;;;;;5080884;28;20025;-76
2021/09/11 13:35:36;;;;;;;19.05;17.10;;;;;;;;;;5075991;28;20024;-75
2021/09/11 13:38:02;;;;;;;16.75;13.00;;;;;;;;;;5081969;28;20033;-75
2021/09/11 13:40:27;;;;;;;21.70;18.88;;;;;;;;;;5070507;28;20482;-76
2021/09/11 13:42:52;;;;;;;20.02;17.92;;;;;;;;;;5082482;28;20446;-74
2021/09/11 13:45:18;;;;;;;18.80;14.52;;;;;;;;;;5089525;28;20312;-76
2021/09/11 13:47:43;;;;;;;17.27;13.73;;;;;;;;;;5083092;28;20035;-75
2021/09/11 13:50:09;;;;;;;13.13;11.15;;;;;;;;;;5092870;28;20024;-76
2021/09/11 13:52:34;;;;;;;15.50;12.63;;;;;;;;;;5082895;28;20039;-75
2021/09/11 13:55:00;;;;;;;14.35;11.65;;;;;;;;;;5091578;28;20666;-75
2021/09/11 13:57:25;;;;;;;15.35;11.85;;;;;;;;;;5076167;28;20090;-76
2021/09/11 13:59:51;;;;;;;16.52;13.27;;;;;;;;;;5078800;28;20492;-76
2021/09/11 14:02:16;;;;;;;16.60;14.65;;;;;;;;;;5073615;28;20056;-76
2021/09/11 14:04:41;;;;;;;15.35;12.55;;;;;;;;;;5075887;28;20487;-76
2021/09/11 14:07:07;;;;;;;16.17;11.73;;;;;;;;;;5078857;28;20024;-77
2021/09/11 14:09:36;;;;;;;17.42;12.05;;;;;;;;;;5080021;28;20099;-76
2021/09/11 14:12:02;;;;;;;21.27;15.98;;;;;;;;;;5072221;28;20626;-76
2021/09/11 14:14:27;;;;;;;21.92;13.40;;;;;;;;;;5074400;28;20043;-77
2021/09/11 14:16:53;;;;;;;15.63;12.00;;;;;;;;;;5073713;28;20057;-77
2021/09/11 14:19:19;;;;;;;21.02;15.27;;;;;;;;;;5080243;28;20028;-76
2021/09/11 14:21:44;;;;;;;20.92;15.90;;;;;;;;;;5076121;28;20021;-75
2021/09/11 14:24:10;;;;;;;22.10;15.77;;;;;;;;;;5054053;28;20044;-75